createdAt,value
2017-06-14T00:00:30.952Z,19.74
2017-06-14T00:01:30.954Z,19.71
2017-06-14T00:02:30.950Z,19.71
2017-06-14T00:03:30.640Z,19.67
2017-06-14T00:04:30.944Z,19.71
2017-06-14T00:05:30.946Z,19.64
2017-06-14T00:06:30.944Z,19.72
2017-06-14T00:07:30.936Z,19.71
2017-06-14T00:08:30.939Z,19.71
2017-06-14T00:09:30.633Z,19.72
2017-06-14T00:10:30.626Z,19.7
2017-06-14T00:11:30.936Z,19.71
2017-06-14T00:12:30.940Z,19.7
2017-06-14T00:13:30.928Z,19.7
2017-06-14T00:14:30.930Z,19.63
2017-06-14T00:15:30.923Z,19.59
2017-06-14T00:16:30.644Z,19.66
2017-06-14T00:17:30.618Z,19.66
2017-06-14T00:18:30.615Z,19.64
2017-06-14T00:19:30.609Z,19.59
2017-06-14T00:20:30.608Z,19.53
2017-06-14T00:21:30.917Z,19.52
2017-06-14T00:22:30.912Z,19.59
2017-06-14T00:23:30.914Z,19.6
2017-06-14T00:24:30.908Z,19.49
2017-06-14T00:25:30.909Z,19.53
2017-06-14T00:26:30.902Z,19.57
2017-06-14T00:27:30.902Z,19.6
2017-06-14T00:28:30.899Z,19.57
2017-06-14T00:29:30.897Z,19.64
2017-06-14T00:30:30.893Z,19.55
2017-06-14T00:31:30.890Z,19.55
2017-06-14T00:32:30.890Z,19.55
2017-06-14T00:33:30.584Z,19.59
2017-06-14T00:34:30.889Z,19.56
2017-06-14T00:35:30.884Z,19.57
2017-06-14T00:36:30.580Z,19.55
2017-06-14T00:37:30.885Z,19.59
2017-06-14T00:38:30.575Z,19.55
2017-06-14T00:39:30.572Z,19.53
2017-06-14T00:40:30.873Z,19.59
2017-06-14T00:41:30.875Z,19.63
2017-06-14T00:42:30.565Z,19.59
2017-06-14T00:43:30.867Z,19.56
2017-06-14T00:44:30.562Z,19.55
2017-06-14T00:45:30.559Z,19.56
2017-06-14T00:46:30.866Z,19.56
2017-06-14T00:47:30.862Z,19.52
2017-06-14T00:48:30.863Z,19.48
2017-06-14T00:49:30.858Z,19.41
2017-06-14T00:50:30.552Z,19.49
2017-06-14T00:51:30.857Z,19.39
2017-06-14T00:52:30.850Z,19.35
2017-06-14T00:53:30.849Z,19.38
2017-06-14T00:54:30.851Z,19.42
2017-06-14T00:55:30.572Z,19.35
2017-06-14T00:56:30.841Z,19.3
2017-06-14T00:57:30.535Z,19.29
2017-06-14T00:58:30.532Z,19.27
2017-06-14T00:59:30.533Z,19.27
2017-06-14T01:00:30.837Z,19.29
2017-06-14T01:01:30.835Z,19.2
2017-06-14T01:02:30.501Z,19.23
2017-06-14T01:03:30.801Z,19.19
2017-06-14T01:04:30.799Z,19.17
2017-06-14T01:05:30.797Z,19.17
2017-06-14T01:06:30.190Z,19.15
2017-06-14T01:07:30.492Z,19.15
2017-06-14T01:08:30.789Z,19.17
2017-06-14T01:09:30.828Z,19.11
2017-06-14T01:10:30.788Z,19.07
2017-06-14T01:11:30.786Z,19.15
2017-06-14T01:12:30.785Z,19.16
2017-06-14T01:13:30.781Z,19.09
2017-06-14T01:14:30.780Z,19.04
2017-06-14T01:15:30.473Z,19
2017-06-14T01:16:30.472Z,19
2017-06-14T01:17:30.470Z,19.05
2017-06-14T01:18:30.771Z,19.04
2017-06-14T01:19:30.766Z,19.07
2017-06-14T01:20:30.160Z,19.04
2017-06-14T01:21:30.463Z,19.15
2017-06-14T01:22:30.461Z,19.11
2017-06-14T01:23:30.762Z,19.11
2017-06-14T01:24:30.761Z,19.17
2017-06-14T01:25:30.754Z,19.16
2017-06-14T01:26:30.452Z,19.12
2017-06-14T01:27:30.450Z,19.19
2017-06-14T01:28:30.448Z,19.19
2017-06-14T01:29:30.444Z,19.15
2017-06-14T01:30:30.445Z,19.17
2017-06-14T01:31:30.742Z,19.22
2017-06-14T01:32:30.440Z,19.2
2017-06-14T01:33:30.743Z,19.2
2017-06-14T01:34:30.737Z,19.2
2017-06-14T01:35:30.736Z,19.23
2017-06-14T01:36:30.431Z,19.15
2017-06-14T01:37:30.730Z,19.19
2017-06-14T01:38:30.731Z,19.07
2017-06-14T01:39:30.729Z,19.07
2017-06-14T01:40:30.723Z,19.01
2017-06-14T01:41:30.723Z,19.01
2017-06-14T01:42:30.718Z,19.05
2017-06-14T01:43:30.718Z,19.08
2017-06-14T01:44:30.719Z,19.01
2017-06-14T01:45:30.417Z,19.01
2017-06-14T01:46:30.714Z,19
2017-06-14T01:47:30.709Z,19.01
2017-06-14T01:48:30.409Z,19.01
2017-06-14T01:49:30.705Z,19.07
2017-06-14T01:50:30.701Z,18.97
2017-06-14T01:51:30.406Z,18.92
2017-06-14T01:52:30.700Z,18.88
2017-06-14T01:53:30.694Z,18.88
2017-06-14T01:54:30.392Z,18.88
2017-06-14T01:55:30.699Z,18.96
2017-06-14T01:56:30.690Z,18.81
2017-06-14T01:57:30.687Z,18.86
2017-06-14T01:58:30.388Z,18.79
2017-06-14T01:59:30.382Z,18.83
2017-06-14T02:00:30.684Z,18.81
2017-06-14T02:01:30.682Z,18.85
2017-06-14T02:02:30.679Z,18.78
2017-06-14T02:03:30.679Z,18.74
2017-06-14T02:04:30.675Z,18.74
2017-06-14T02:05:30.673Z,18.73
2017-06-14T02:06:30.366Z,18.71
2017-06-14T02:07:30.364Z,18.73
2017-06-14T02:08:30.666Z,18.76
2017-06-14T02:09:30.663Z,18.68
2017-06-14T02:10:30.660Z,18.73
2017-06-14T02:11:30.358Z,18.73
2017-06-14T02:12:30.659Z,18.7
2017-06-14T02:13:30.660Z,18.68
2017-06-14T02:14:30.654Z,18.68
2017-06-14T02:15:30.650Z,18.73
2017-06-14T02:16:30.649Z,18.73
2017-06-14T02:17:30.646Z,18.64
2017-06-14T02:18:30.340Z,18.66
2017-06-14T02:19:30.338Z,18.67
2017-06-14T02:20:30.342Z,18.63
2017-06-14T02:21:30.636Z,18.66
2017-06-14T02:22:30.634Z,18.68
2017-06-14T02:23:30.335Z,18.71
2017-06-14T02:24:30.327Z,18.73
2017-06-14T02:25:30.329Z,18.67
2017-06-14T02:26:30.324Z,18.67
2017-06-14T02:27:30.623Z,18.7
2017-06-14T02:28:30.619Z,18.71
2017-06-14T02:29:30.622Z,18.73
2017-06-14T02:30:30.618Z,18.74
2017-06-14T02:31:30.617Z,18.73
2017-06-14T02:32:30.618Z,18.78
2017-06-14T02:33:30.610Z,18.68
2017-06-14T02:34:30.608Z,18.67
2017-06-14T02:35:30.607Z,18.68
2017-06-14T02:36:30.607Z,18.68
2017-06-14T02:37:30.605Z,18.67
2017-06-14T02:38:30.600Z,18.7
2017-06-14T02:39:30.632Z,18.68
2017-06-14T02:40:30.596Z,18.7
2017-06-14T02:41:30.291Z,18.73
2017-06-14T02:42:30.289Z,18.73
2017-06-14T02:43:30.591Z,18.67
2017-06-14T02:44:30.597Z,18.64
2017-06-14T02:45:30.279Z,18.64
2017-06-14T02:46:30.585Z,18.74
2017-06-14T02:47:30.579Z,18.67
2017-06-14T02:48:30.578Z,18.61
2017-06-14T02:49:30.605Z,18.61
2017-06-14T02:50:30.271Z,18.63
2017-06-14T02:51:30.570Z,18.61
2017-06-14T02:52:30.568Z,18.63
2017-06-14T02:53:30.568Z,18.64
2017-06-14T02:54:30.565Z,18.61
2017-06-14T02:55:30.565Z,18.55
2017-06-14T02:56:30.561Z,18.64
2017-06-14T02:57:30.558Z,18.63
2017-06-14T02:58:30.558Z,18.66
2017-06-14T02:59:30.555Z,18.64
2017-06-14T03:00:30.556Z,18.63
2017-06-14T03:01:30.553Z,18.63
2017-06-14T03:02:30.587Z,18.61
2017-06-14T03:03:30.548Z,18.63
2017-06-14T03:04:30.543Z,18.6
2017-06-14T03:05:30.541Z,18.61
2017-06-14T03:06:30.241Z,18.53
2017-06-14T03:07:30.537Z,18.64
2017-06-14T03:08:29.930Z,18.58
2017-06-14T03:09:30.532Z,18.64
2017-06-14T03:10:30.534Z,18.63
2017-06-14T03:11:30.229Z,18.6
2017-06-14T03:12:30.224Z,18.57
2017-06-14T03:13:30.222Z,18.58
2017-06-14T03:14:30.525Z,18.61
2017-06-14T03:15:29.915Z,18.58
2017-06-14T03:16:30.517Z,18.52
2017-06-14T03:17:30.515Z,18.52
2017-06-14T03:18:30.212Z,18.48
2017-06-14T03:19:30.511Z,18.57
2017-06-14T03:20:30.206Z,18.6
2017-06-14T03:21:30.506Z,18.52
2017-06-14T03:22:29.901Z,18.6
2017-06-14T03:23:30.198Z,18.55
2017-06-14T03:24:30.502Z,18.51
2017-06-14T03:25:30.496Z,18.46
2017-06-14T03:26:30.496Z,18.58
2017-06-14T03:27:30.195Z,18.52
2017-06-14T03:28:30.190Z,18.52
2017-06-14T03:29:30.190Z,18.52
2017-06-14T03:30:30.490Z,18.45
2017-06-14T03:31:30.484Z,18.46
2017-06-14T03:32:30.180Z,18.45
2017-06-14T03:33:30.183Z,18.43
2017-06-14T03:34:30.174Z,18.36
2017-06-14T03:35:30.172Z,18.42
2017-06-14T03:36:30.173Z,18.39
2017-06-14T03:37:30.169Z,18.34
2017-06-14T03:38:30.469Z,18.42
2017-06-14T03:39:30.468Z,18.42
2017-06-14T03:40:30.165Z,18.39
2017-06-14T03:41:30.158Z,18.37
2017-06-14T03:42:30.160Z,18.43
2017-06-14T03:43:30.461Z,18.42
2017-06-14T03:44:30.457Z,18.46
2017-06-14T03:45:30.151Z,18.49
2017-06-14T03:46:30.151Z,18.43
2017-06-14T03:47:30.447Z,18.48
2017-06-14T03:48:30.449Z,18.46
2017-06-14T03:49:30.446Z,18.39
2017-06-14T03:50:30.143Z,18.42
2017-06-14T03:51:30.445Z,18.37
2017-06-14T03:52:30.142Z,18.34
2017-06-14T03:53:30.439Z,18.37
2017-06-14T03:54:30.135Z,18.39
2017-06-14T03:55:30.434Z,18.45
2017-06-14T03:56:29.826Z,18.45
2017-06-14T03:57:30.428Z,18.45
2017-06-14T03:58:30.425Z,18.43
2017-06-14T03:59:30.423Z,18.41
2017-06-14T04:00:30.420Z,18.42
2017-06-14T04:01:30.419Z,18.45
2017-06-14T04:02:30.118Z,18.41
2017-06-14T04:03:30.114Z,18.36
2017-06-14T04:04:30.413Z,18.43
2017-06-14T04:05:30.411Z,18.34
2017-06-14T04:06:29.804Z,18.37
2017-06-14T04:07:30.103Z,18.24
2017-06-14T04:08:30.100Z,18.27
2017-06-14T04:09:30.108Z,18.3
2017-06-14T04:10:30.399Z,18.36
2017-06-14T04:11:30.424Z,18.33
2017-06-14T04:12:29.792Z,18.33
2017-06-14T04:13:30.091Z,18.34
2017-06-14T04:14:30.391Z,18.39
2017-06-14T04:15:30.390Z,18.43
2017-06-14T04:16:30.088Z,18.42
2017-06-14T04:17:30.085Z,18.46
2017-06-14T04:18:30.383Z,18.46
2017-06-14T04:19:30.381Z,18.48
2017-06-14T04:20:30.379Z,18.51
2017-06-14T04:21:30.075Z,18.53
2017-06-14T04:22:30.076Z,18.63
2017-06-14T04:23:30.070Z,18.58
2017-06-14T04:24:30.072Z,18.63
2017-06-14T04:25:30.372Z,18.53
2017-06-14T04:26:30.072Z,18.64
2017-06-14T04:27:30.364Z,18.64
2017-06-14T04:28:30.062Z,18.71
2017-06-14T04:29:30.362Z,18.78
2017-06-14T04:30:30.363Z,18.82
2017-06-14T04:31:30.359Z,18.97
2017-06-14T04:32:30.054Z,18.98
2017-06-14T04:33:30.355Z,19.12
2017-06-14T04:34:30.353Z,19.23
2017-06-14T04:35:30.049Z,19.38
2017-06-14T04:36:30.351Z,19.57
2017-06-14T04:37:30.044Z,19.85
2017-06-14T04:38:30.347Z,19.93
2017-06-14T04:39:29.740Z,20.12
2017-06-14T04:40:30.345Z,20.19
2017-06-14T04:41:30.344Z,20.3
2017-06-14T04:42:30.040Z,20.37
2017-06-14T04:43:30.338Z,20.29
2017-06-14T04:44:30.039Z,20.21
2017-06-14T04:45:30.336Z,20.17
2017-06-14T04:46:30.339Z,20.19
2017-06-14T04:47:30.334Z,20.04
2017-06-14T04:48:30.029Z,19.94
2017-06-14T04:49:30.328Z,19.77
2017-06-14T04:50:30.331Z,19.62
2017-06-14T04:51:30.329Z,19.62
2017-06-14T04:52:30.326Z,19.47
2017-06-14T04:53:30.023Z,19.49
2017-06-14T04:54:30.325Z,19.29
2017-06-14T04:55:30.323Z,19.27
2017-06-14T04:56:30.020Z,19.19
2017-06-14T04:57:30.018Z,19.16
2017-06-14T04:58:30.317Z,19.11
2017-06-14T04:59:30.316Z,19.05
2017-06-14T05:00:30.015Z,19
2017-06-14T05:01:30.012Z,19.01
2017-06-14T05:02:30.314Z,19.15
2017-06-14T05:03:30.311Z,19.11
2017-06-14T05:04:30.008Z,19.16
2017-06-14T05:05:30.309Z,19.16
2017-06-14T05:06:30.311Z,19.15
2017-06-14T05:07:30.307Z,19.12
2017-06-14T05:08:30.303Z,19.2
2017-06-14T05:09:30.302Z,19.23
2017-06-14T05:10:30.300Z,19.23
2017-06-14T05:11:30.299Z,19.32
2017-06-14T05:12:30.298Z,19.37
2017-06-14T05:13:30.297Z,19.39
2017-06-14T05:14:29.688Z,19.39
2017-06-14T05:15:30.292Z,19.48
2017-06-14T05:16:30.292Z,19.42
2017-06-14T05:17:30.296Z,19.47
2017-06-14T05:18:29.987Z,19.56
2017-06-14T05:19:30.287Z,19.56
2017-06-14T05:20:30.283Z,19.48
2017-06-14T05:21:29.982Z,19.45
2017-06-14T05:22:30.286Z,19.47
2017-06-14T05:23:30.282Z,19.45
2017-06-14T05:24:29.977Z,19.56
2017-06-14T05:25:29.979Z,19.57
2017-06-14T05:26:29.673Z,19.56
2017-06-14T05:27:30.279Z,19.67
2017-06-14T05:28:30.276Z,19.74
2017-06-14T05:29:30.277Z,19.85
2017-06-14T05:30:30.273Z,19.79
2017-06-14T05:31:30.272Z,19.77
2017-06-14T05:32:30.270Z,19.79
2017-06-14T05:33:30.267Z,19.75
2017-06-14T05:34:30.267Z,19.72
2017-06-14T05:35:30.267Z,19.87
2017-06-14T05:36:30.271Z,19.87
2017-06-14T05:37:29.962Z,19.87
2017-06-14T05:38:29.960Z,19.93
2017-06-14T05:39:29.964Z,19.89
2017-06-14T05:40:30.258Z,19.94
2017-06-14T05:41:30.259Z,19.99
2017-06-14T05:42:30.255Z,20.02
2017-06-14T05:43:29.648Z,20.15
2017-06-14T05:44:30.256Z,20.24
2017-06-14T05:45:30.249Z,20.33
2017-06-14T05:46:29.947Z,20.5
2017-06-14T05:47:30.249Z,20.59
2017-06-14T05:48:30.254Z,20.7
2017-06-14T05:49:30.244Z,20.86
2017-06-14T05:50:29.942Z,20.88
2017-06-14T05:51:30.246Z,20.98
2017-06-14T05:52:30.242Z,21.26
2017-06-14T05:53:30.246Z,21.43
2017-06-14T05:54:30.241Z,21.51
2017-06-14T05:55:30.237Z,21.62
2017-06-14T05:56:30.236Z,21.58
2017-06-14T05:57:30.237Z,21.78
2017-06-14T05:58:30.240Z,21.92
2017-06-14T05:59:30.250Z,22.07
2017-06-14T06:00:30.264Z,22.28
2017-06-14T06:01:29.953Z,22.46
2017-06-14T06:02:29.957Z,22.58
2017-06-14T06:03:30.260Z,22.71
2017-06-14T06:04:30.259Z,22.77
2017-06-14T06:05:29.957Z,22.78
2017-06-14T06:06:29.952Z,22.84
2017-06-14T06:07:29.673Z,22.76
2017-06-14T06:08:30.264Z,22.67
2017-06-14T06:09:29.956Z,22.55
2017-06-14T06:10:30.264Z,22.43
2017-06-14T06:11:29.646Z,22.41
2017-06-14T06:12:30.254Z,22.37
2017-06-14T06:13:29.949Z,22.16
2017-06-14T06:14:29.951Z,22.25
2017-06-14T06:15:30.257Z,22.12
2017-06-14T06:16:30.254Z,22.04
2017-06-14T06:17:30.254Z,21.99
2017-06-14T06:18:30.256Z,22.06
2017-06-14T06:19:30.257Z,22.03
2017-06-14T06:20:30.254Z,21.92
2017-06-14T06:21:30.251Z,21.84
2017-06-14T06:22:30.250Z,21.91
2017-06-14T06:23:30.252Z,21.85
2017-06-14T06:24:30.250Z,21.75
2017-06-14T06:25:30.249Z,21.78
2017-06-14T06:26:30.250Z,21.8
2017-06-14T06:27:29.638Z,21.89
2017-06-14T06:28:30.251Z,21.94
2017-06-14T06:29:30.249Z,22.01
2017-06-14T06:30:30.246Z,21.99
2017-06-14T06:31:29.940Z,22.06
2017-06-14T06:32:29.941Z,21.99
2017-06-14T06:33:29.939Z,22.01
2017-06-14T06:34:30.241Z,22.19
2017-06-14T06:35:30.245Z,22.18
2017-06-14T06:36:29.938Z,22.34
2017-06-14T06:37:30.243Z,22.36
2017-06-14T06:38:30.241Z,22.47
2017-06-14T06:39:30.243Z,22.53
2017-06-14T06:40:30.237Z,22.67
2017-06-14T06:41:30.242Z,22.76
2017-06-14T06:42:30.240Z,22.84
2017-06-14T06:43:29.933Z,23.04
2017-06-14T06:44:29.932Z,23.1
2017-06-14T06:45:30.237Z,23.32
2017-06-14T06:46:29.936Z,23.42
2017-06-14T06:47:30.236Z,23.52
2017-06-14T06:48:30.240Z,23.54
2017-06-14T06:49:30.234Z,23.54
2017-06-14T06:50:30.236Z,23.62
2017-06-14T06:51:29.930Z,23.64
2017-06-14T06:52:30.236Z,23.51
2017-06-14T06:53:29.930Z,23.42
2017-06-14T06:54:30.235Z,23.32
2017-06-14T06:55:29.621Z,23.13
2017-06-14T06:56:30.232Z,22.84
2017-06-14T06:57:30.232Z,22.76
2017-06-14T06:58:30.234Z,22.67
2017-06-14T06:59:29.922Z,22.51
2017-06-14T07:00:30.231Z,22.51
2017-06-14T07:01:30.230Z,22.41
2017-06-14T07:02:30.227Z,22.31
2017-06-14T07:03:30.225Z,22.36
2017-06-14T07:04:29.921Z,22.34
2017-06-14T07:05:29.920Z,22.34
2017-06-14T07:06:29.959Z,22.23
2017-06-14T07:07:30.226Z,22.16
2017-06-14T07:08:29.920Z,22.19
2017-06-14T07:09:30.228Z,22.19
2017-06-14T07:10:29.916Z,22.1
2017-06-14T07:11:30.224Z,22.14
2017-06-14T07:12:30.227Z,22.1
2017-06-14T07:13:29.918Z,22.16
2017-06-14T07:14:30.223Z,22.03
2017-06-14T07:15:30.223Z,22.1
2017-06-14T07:16:30.231Z,22.15
2017-06-14T07:17:29.916Z,22.07
2017-06-14T07:18:30.228Z,22.08
2017-06-14T07:19:30.226Z,22.08
2017-06-14T07:20:30.221Z,21.91
2017-06-14T07:21:30.219Z,21.89
2017-06-14T07:22:29.911Z,21.77
2017-06-14T07:23:30.221Z,21.75
2017-06-14T07:24:30.216Z,21.78
2017-06-14T07:25:29.913Z,21.77
2017-06-14T07:26:30.216Z,21.65
2017-06-14T07:27:30.211Z,21.69
2017-06-14T07:28:29.907Z,21.65
2017-06-14T07:29:30.216Z,21.74
2017-06-14T07:30:30.210Z,21.62
2017-06-14T07:31:30.211Z,21.63
2017-06-14T07:32:30.214Z,21.65
2017-06-14T07:33:30.212Z,21.62
2017-06-14T07:34:30.208Z,21.54
2017-06-14T07:35:29.900Z,21.63
2017-06-14T07:36:30.206Z,21.78
2017-06-14T07:37:30.206Z,21.92
2017-06-14T07:38:29.902Z,21.88
2017-06-14T07:39:29.900Z,22.04
2017-06-14T07:40:30.208Z,21.99
2017-06-14T07:41:30.207Z,22.07
2017-06-14T07:42:30.204Z,21.97
2017-06-14T07:43:30.203Z,21.88
2017-06-14T07:44:30.200Z,21.97
2017-06-14T07:45:30.203Z,21.99
2017-06-14T07:46:29.892Z,22
2017-06-14T07:47:30.197Z,21.96
2017-06-14T07:48:30.197Z,21.94
2017-06-14T07:49:29.891Z,22.03
2017-06-14T07:50:30.200Z,22.06
2017-06-14T07:51:30.198Z,22.07
2017-06-14T07:52:30.194Z,21.99
2017-06-14T07:53:30.194Z,22.21
2017-06-14T07:54:30.191Z,22.31
2017-06-14T07:55:30.194Z,22.33
2017-06-14T07:56:30.199Z,22.56
2017-06-14T07:57:30.188Z,22.52
2017-06-14T07:58:29.884Z,22.43
2017-06-14T07:59:30.189Z,22.43
2017-06-14T08:00:30.189Z,22.52
2017-06-14T08:01:29.882Z,22.47
2017-06-14T08:02:29.879Z,22.52
2017-06-14T08:03:29.880Z,22.51
2017-06-14T08:04:30.187Z,22.52
2017-06-14T08:05:30.188Z,22.46
2017-06-14T08:06:30.183Z,22.4
2017-06-14T08:07:29.879Z,22.34
2017-06-14T08:08:30.180Z,22.26
2017-06-14T08:09:30.182Z,22.36
2017-06-14T08:10:29.876Z,22.28
2017-06-14T08:11:29.880Z,22.31
2017-06-14T08:12:30.177Z,22.44
2017-06-14T08:13:30.178Z,22.46
2017-06-14T08:14:29.563Z,22.77
2017-06-14T08:15:29.870Z,22.98
2017-06-14T08:16:29.874Z,23.32
2017-06-14T08:17:30.177Z,23.37
2017-06-14T08:18:30.175Z,23.52
2017-06-14T08:19:30.180Z,23.54
2017-06-14T08:20:29.868Z,23.67
2017-06-14T08:21:29.867Z,23.85
2017-06-14T08:22:30.180Z,24.1
2017-06-14T08:23:30.171Z,24.26
2017-06-14T08:24:30.171Z,24.43
2017-06-14T08:25:30.173Z,24.48
2017-06-14T08:26:30.171Z,24.51
2017-06-14T08:27:30.171Z,24.4
2017-06-14T08:28:30.172Z,24.25
2017-06-14T08:29:30.168Z,24.24
2017-06-14T08:30:30.166Z,24.06
2017-06-14T08:31:29.864Z,23.84
2017-06-14T08:32:30.170Z,23.79
2017-06-14T08:33:30.168Z,23.7
2017-06-14T08:34:30.168Z,23.62
2017-06-14T08:35:30.166Z,23.63
2017-06-14T08:36:30.163Z,23.71
2017-06-14T08:37:29.855Z,23.82
2017-06-14T08:38:29.858Z,24.01
2017-06-14T08:39:29.856Z,24.14
2017-06-14T08:40:29.855Z,24.28
2017-06-14T08:41:30.164Z,24.4
2017-06-14T08:42:30.164Z,24.55
2017-06-14T08:43:30.165Z,24.69
2017-06-14T08:44:30.159Z,24.94
2017-06-14T08:45:30.162Z,25.06
2017-06-14T08:46:30.163Z,25.33
2017-06-14T08:47:29.856Z,25.37
2017-06-14T08:48:29.851Z,25.43
2017-06-14T08:49:30.160Z,25.52
2017-06-14T08:50:30.157Z,25.54
2017-06-14T08:51:30.161Z,25.51
2017-06-14T08:52:30.159Z,25.4
2017-06-14T08:53:30.162Z,25.24
2017-06-14T08:54:30.159Z,25.24
2017-06-14T08:55:30.171Z,25.22
2017-06-14T08:56:29.855Z,25.15
2017-06-14T08:57:30.159Z,25.12
2017-06-14T08:58:30.157Z,25.11
2017-06-14T08:59:29.850Z,25.21
2017-06-14T09:00:29.851Z,25.24
2017-06-14T09:01:30.157Z,25.34
2017-06-14T09:02:30.157Z,25.33
2017-06-14T09:03:29.851Z,25.19
2017-06-14T09:04:30.155Z,25.18
2017-06-14T09:05:29.549Z,25.37
2017-06-14T09:06:30.155Z,25.46
2017-06-14T09:07:29.852Z,25.66
2017-06-14T09:08:30.155Z,25.74
2017-06-14T09:09:30.158Z,25.81
2017-06-14T09:10:30.161Z,25.81
2017-06-14T09:11:30.152Z,25.95
2017-06-14T09:12:29.851Z,26.06
2017-06-14T09:13:29.852Z,26.06
2017-06-14T09:14:29.848Z,26.04
2017-06-14T09:15:30.158Z,25.98
2017-06-14T09:16:30.157Z,25.91
2017-06-14T09:17:30.154Z,25.85
2017-06-14T09:18:30.156Z,25.85
2017-06-14T09:19:30.158Z,25.85
2017-06-14T09:20:30.156Z,25.86
2017-06-14T09:21:30.155Z,25.88
2017-06-14T09:22:30.156Z,25.91
2017-06-14T09:23:30.158Z,25.95
2017-06-14T09:24:30.155Z,25.89
2017-06-14T09:25:30.153Z,25.83
2017-06-14T09:26:30.160Z,25.85
2017-06-14T09:27:30.158Z,25.83
2017-06-14T09:28:29.850Z,25.78
2017-06-14T09:29:30.156Z,25.86
2017-06-14T09:30:30.157Z,25.95
2017-06-14T09:31:30.170Z,25.95
2017-06-14T09:32:29.850Z,25.95
2017-06-14T09:33:30.155Z,25.93
2017-06-14T09:34:29.849Z,26.03
2017-06-14T09:35:29.848Z,25.91
2017-06-14T09:36:30.156Z,25.78
2017-06-14T09:37:29.845Z,25.73
2017-06-14T09:38:30.156Z,25.76
2017-06-14T09:39:30.155Z,25.74
2017-06-14T09:40:30.154Z,25.85
2017-06-14T09:41:30.160Z,25.98
2017-06-14T09:42:29.544Z,25.95
2017-06-14T09:43:30.172Z,25.98
2017-06-14T09:44:30.152Z,25.88
2017-06-14T09:45:30.152Z,25.93
2017-06-14T09:46:30.154Z,25.86
2017-06-14T09:47:30.162Z,25.83
2017-06-14T09:48:30.150Z,25.74
2017-06-14T09:49:29.847Z,25.73
2017-06-14T09:50:30.151Z,25.59
2017-06-14T09:51:30.154Z,25.52
2017-06-14T09:52:30.154Z,25.46
2017-06-14T09:53:30.154Z,25.31
2017-06-14T09:54:30.154Z,25.33
2017-06-14T09:55:29.843Z,25.41
2017-06-14T09:56:29.846Z,25.62
2017-06-14T09:57:30.149Z,25.71
2017-06-14T09:58:30.153Z,25.83
2017-06-14T09:59:30.147Z,25.78
2017-06-14T10:00:29.847Z,25.8
2017-06-14T10:01:30.151Z,25.78
2017-06-14T10:02:30.151Z,25.78
2017-06-14T10:03:30.151Z,25.62
2017-06-14T10:04:30.152Z,25.73
2017-06-14T10:05:30.153Z,25.66
2017-06-14T10:06:30.149Z,25.58
2017-06-14T10:07:30.151Z,25.41
2017-06-14T10:08:30.150Z,25.37
2017-06-14T10:09:29.543Z,25.39
2017-06-14T10:10:29.843Z,25.41
2017-06-14T10:11:29.844Z,25.37
2017-06-14T10:12:29.846Z,25.34
2017-06-14T10:13:29.841Z,25.14
2017-06-14T10:14:29.536Z,25.26
2017-06-14T10:15:29.541Z,25.11
2017-06-14T10:16:30.151Z,25.3
2017-06-14T10:17:29.842Z,25.26
2017-06-14T10:18:29.841Z,25.49
2017-06-14T10:19:29.839Z,25.71
2017-06-14T10:20:30.151Z,25.74
2017-06-14T10:21:30.149Z,25.8
2017-06-14T10:22:30.150Z,25.86
2017-06-14T10:23:30.147Z,25.88
2017-06-14T10:24:30.144Z,26.08
2017-06-14T10:25:29.841Z,26.01
2017-06-14T10:26:29.842Z,26.1
2017-06-14T10:27:30.146Z,26.08
2017-06-14T10:28:29.842Z,26.18
2017-06-14T10:29:29.839Z,26.22
2017-06-14T10:30:29.842Z,26.23
2017-06-14T10:31:29.839Z,26.37
2017-06-14T10:32:30.147Z,26.39
2017-06-14T10:33:30.150Z,26.49
2017-06-14T10:34:30.150Z,26.51
2017-06-14T10:35:30.187Z,26.56
2017-06-14T10:36:30.149Z,26.61
2017-06-14T10:37:30.151Z,26.55
2017-06-14T10:38:30.146Z,26.52
2017-06-14T10:39:29.839Z,26.55
2017-06-14T10:40:30.147Z,26.63
2017-06-14T10:41:29.837Z,26.63
2017-06-14T10:42:30.146Z,26.61
2017-06-14T10:43:30.150Z,26.66
2017-06-14T10:44:30.145Z,26.59
2017-06-14T10:45:29.840Z,26.6
2017-06-14T10:46:30.149Z,26.51
2017-06-14T10:47:30.144Z,26.61
2017-06-14T10:48:30.146Z,26.53
2017-06-14T10:49:30.149Z,26.52
2017-06-14T10:50:30.145Z,26.55
2017-06-14T10:51:30.149Z,26.49
2017-06-14T10:52:30.145Z,26.53
2017-06-14T10:53:30.144Z,26.6
2017-06-14T10:54:29.841Z,26.66
2017-06-14T10:55:30.149Z,26.68
2017-06-14T10:56:30.147Z,26.82
2017-06-14T10:57:30.146Z,26.78
2017-06-14T10:58:30.149Z,26.82
2017-06-14T10:59:29.842Z,26.81
2017-06-14T11:00:30.142Z,26.76
2017-06-14T11:01:30.147Z,26.82
2017-06-14T11:02:30.148Z,26.82
2017-06-14T11:03:29.841Z,26.91
2017-06-14T11:04:29.838Z,26.88
2017-06-14T11:05:30.144Z,26.79
2017-06-14T11:06:30.146Z,26.71
2017-06-14T11:07:30.346Z,26.63
2017-06-14T11:08:30.166Z,26.6
2017-06-14T11:09:30.146Z,26.49
2017-06-14T11:10:29.836Z,26.49
2017-06-14T11:11:30.151Z,26.49
2017-06-14T11:12:30.144Z,26.51
2017-06-14T11:13:30.144Z,26.56
2017-06-14T11:14:29.841Z,26.61
2017-06-14T11:15:30.145Z,26.55
2017-06-14T11:16:30.144Z,26.49
2017-06-14T11:17:29.843Z,26.45
2017-06-14T11:18:29.840Z,26.52
2017-06-14T11:19:29.841Z,26.51
2017-06-14T11:20:30.143Z,26.41
2017-06-14T11:21:30.146Z,26.36
2017-06-14T11:22:30.141Z,26.36
2017-06-14T11:23:29.838Z,26.39
2017-06-14T11:24:30.144Z,26.36
2017-06-14T11:25:30.143Z,26.37
2017-06-14T11:26:30.142Z,26.41
2017-06-14T11:27:29.529Z,26.39
2017-06-14T11:28:29.836Z,26.26
2017-06-14T11:29:30.142Z,26.27
2017-06-14T11:30:29.526Z,26.27
2017-06-14T11:31:29.836Z,26.27
2017-06-14T11:32:30.142Z,26.24
2017-06-14T11:33:29.528Z,26.27
2017-06-14T11:34:30.139Z,26.29
2017-06-14T11:35:29.837Z,26.13
2017-06-14T11:36:30.138Z,26.1
2017-06-14T11:37:30.137Z,26.03
2017-06-14T11:38:30.175Z,25.95
2017-06-14T11:39:30.139Z,25.96
2017-06-14T11:40:29.833Z,26.04
2017-06-14T11:41:29.832Z,26.07
2017-06-14T11:42:30.138Z,26.18
2017-06-14T11:43:29.830Z,26.26
2017-06-14T11:44:29.833Z,26.22
2017-06-14T11:45:30.140Z,26.22
2017-06-14T11:46:30.136Z,26.29
2017-06-14T11:47:30.141Z,26.29
2017-06-14T11:48:30.139Z,26.26
2017-06-14T11:49:29.527Z,26.22
2017-06-14T11:50:30.135Z,26.22
2017-06-14T11:51:30.133Z,26.24
2017-06-14T11:52:30.132Z,26.15
2017-06-14T11:53:30.135Z,26.18
2017-06-14T11:54:29.831Z,26.13
2017-06-14T11:55:30.136Z,26.04
2017-06-14T11:56:30.135Z,26.07
2017-06-14T11:57:30.132Z,26.11
2017-06-14T11:58:30.126Z,26.1
2017-06-14T11:59:30.128Z,26.07
2017-06-14T12:00:30.130Z,25.92
2017-06-14T12:01:30.135Z,25.95
2017-06-14T12:02:30.131Z,25.98
2017-06-14T12:03:30.127Z,25.95
2017-06-14T12:04:30.129Z,25.93
2017-06-14T12:05:30.027Z,25.93
2017-06-14T12:06:30.132Z,25.88
2017-06-14T12:07:30.129Z,25.93
2017-06-14T12:08:30.131Z,25.95
2017-06-14T12:09:29.818Z,25.98
2017-06-14T12:10:30.123Z,25.91
2017-06-14T12:11:29.825Z,25.96
2017-06-14T12:12:29.823Z,25.98
2017-06-14T12:13:29.833Z,26.1
2017-06-14T12:14:30.125Z,26.18
2017-06-14T12:15:29.817Z,26.22
2017-06-14T12:16:30.124Z,26.11
2017-06-14T12:17:30.125Z,26.11
2017-06-14T12:18:29.815Z,26.11
2017-06-14T12:19:30.124Z,25.96
2017-06-14T12:20:30.120Z,25.93
2017-06-14T12:21:30.124Z,25.85
2017-06-14T12:22:30.120Z,25.81
2017-06-14T12:23:30.120Z,25.8
2017-06-14T12:24:30.118Z,25.83
2017-06-14T12:25:30.119Z,25.76
2017-06-14T12:26:30.116Z,25.83
2017-06-14T12:27:30.117Z,25.83
2017-06-14T12:28:29.812Z,25.85
2017-06-14T12:29:30.117Z,25.78
2017-06-14T12:30:30.118Z,25.81
2017-06-14T12:31:30.118Z,25.89
2017-06-14T12:32:29.808Z,25.8
2017-06-14T12:33:29.811Z,25.85
2017-06-14T12:34:30.112Z,25.89
2017-06-14T12:35:29.809Z,25.88
2017-06-14T12:36:29.808Z,25.89
2017-06-14T12:37:30.111Z,25.95
2017-06-14T12:38:30.111Z,25.99
2017-06-14T12:39:30.109Z,25.95
2017-06-14T12:40:29.806Z,26.01
2017-06-14T12:41:29.805Z,26.08
2017-06-14T12:42:30.106Z,26.06
2017-06-14T12:43:30.110Z,26.1
2017-06-14T12:44:30.110Z,26.1
2017-06-14T12:45:30.105Z,26.06
2017-06-14T12:46:29.801Z,26.1
2017-06-14T12:47:29.491Z,26.13
2017-06-14T12:48:30.107Z,26.15
2017-06-14T12:49:29.493Z,26.07
2017-06-14T12:50:30.102Z,26.08
2017-06-14T12:51:30.102Z,26.13
2017-06-14T12:52:29.797Z,26.07
2017-06-14T12:53:30.099Z,26.13
2017-06-14T12:54:30.102Z,26.07